Center Tuftonboro, New Hampshire
Current Conditions -  °F | °C
As of 9:15 AM on Sunday 21 Dec 2014 (Local Time) from KLCI Reporting Station
Overcast Overcast  
Wind Chill: 19°   Ceiling: 7500
Heat Index: 25°   Visibility: 7mi
Dew Point: 21°   Wind: 5mph
Humidity: 86%   Direction: 40°NE
Pressure: 30.32"   Gusts: NA
Location:  43.65°N, 71.25°W
Report Text: KLCI 211415Z AUTO 04004KT 7SM FEW009 SCT023 OVC075 M04/M06 A3032 RMK AO1
Loading
Personal Weather Stations






























Interactive Weather Map New forecast layout! Learn more

10-Day Weather Forecast

Advertisements
Track Severe Weather on mobile